sensor_id;sensor_type;location;lat;lon;timestamp;temperature;humidity
19138;DHT22;68178;52.188;5.598;2023-06-04T00:00:23;14.30;99.90
19138;DHT22;68178;52.188;5.598;2023-06-04T00:02:49;14.30;99.90
19138;DHT22;68178;52.188;5.598;2023-06-04T00:05:14;14.20;99.90
19138;DHT22;68178;52.188;5.598;2023-06-04T00:07:40;14.20;99.90
19138;DHT22;68178;52.188;5.598;2023-06-04T00:10:06;14.20;99.90
19138;DHT22;68178;52.188;5.598;2023-06-04T00:12:32;14.10;99.90
19138;DHT22;68178;52.188;5.598;2023-06-04T00:14:57;14.10;99.90
19138;DHT22;68178;52.188;5.598;2023-06-04T00:17:23;14.10;99.90
19138;DHT22;68178;52.188;5.598;2023-06-04T00:19:51;14.00;99.90
19138;DHT22;68178;52.188;5.598;2023-06-04T00:22:17;13.90;99.90
19138;DHT22;68178;52.188;5.598;2023-06-04T00:24:42;13.90;99.90
19138;DHT22;68178;52.188;5.598;2023-06-04T00:27:08;13.90;99.90
19138;DHT22;68178;52.188;5.598;2023-06-04T00:29:34;13.80;99.90
19138;DHT22;68178;52.188;5.598;2023-06-04T00:32:00;13.90;99.90
19138;DHT22;68178;52.188;5.598;2023-06-04T00:34:25;13.80;99.90
19138;DHT22;68178;52.188;5.598;2023-06-04T00:36:51;13.70;99.90
19138;DHT22;68178;52.188;5.598;2023-06-04T00:39:17;13.70;99.90
19138;DHT22;68178;52.188;5.598;2023-06-04T00:41:42;13.70;99.90
19138;DHT22;68178;52.188;5.598;2023-06-04T00:44:08;13.60;99.90
19138;DHT22;68178;52.188;5.598;2023-06-04T00:46:34;13.60;99.90
19138;DHT22;68178;52.188;5.598;2023-06-04T00:49:04;13.60;99.90
19138;DHT22;68178;52.188;5.598;2023-06-04T00:51:31;13.50;99.90
19138;DHT22;68178;52.188;5.598;2023-06-04T00:53:58;13.50;99.90
19138;DHT22;68178;52.188;5.598;2023-06-04T00:56:24;13.60;99.90
19138;DHT22;68178;52.188;5.598;2023-06-04T00:58:49;13.50;99.90
19138;DHT22;68178;52.188;5.598;2023-06-04T01:04:15;13.50;99.90
19138;DHT22;68178;52.188;5.598;2023-06-04T01:06:46;13.60;99.90
19138;DHT22;68178;52.188;5.598;2023-06-04T01:09:15;13.50;99.90
19138;DHT22;68178;52.188;5.598;2023-06-04T01:11:41;13.50;99.90
19138;DHT22;68178;52.188;5.598;2023-06-04T01:14:08;13.40;99.90
19138;DHT22;68178;52.188;5.598;2023-06-04T01:16:49;13.40;99.90
19138;DHT22;68178;52.188;5.598;2023-06-04T01:22:14;13.40;99.90
19138;DHT22;68178;52.188;5.598;2023-06-04T01:24:52;13.30;99.90
19138;DHT22;68178;52.188;5.598;2023-06-04T01:27:21;13.30;99.90
19138;DHT22;68178;52.188;5.598;2023-06-04T01:29:47;13.30;99.90
19138;DHT22;68178;52.188;5.598;2023-06-04T01:32:15;13.30;99.90
19138;DHT22;68178;52.188;5.598;2023-06-04T01:34:45;13.20;99.90
19138;DHT22;68178;52.188;5.598;2023-06-04T01:37:12;13.10;99.90
19138;DHT22;68178;52.188;5.598;2023-06-04T01:39:38;13.10;99.90
19138;DHT22;68178;52.188;5.598;2023-06-04T01:42:04;13.10;99.90
19138;DHT22;68178;52.188;5.598;2023-06-04T01:44:30;13.20;99.90
19138;DHT22;68178;52.188;5.598;2023-06-04T01:46:55;13.10;99.90
19138;DHT22;68178;52.188;5.598;2023-06-04T01:49:21;13.10;99.90
19138;DHT22;68178;52.188;5.598;2023-06-04T01:51:46;13.10;99.90
19138;DHT22;68178;52.188;5.598;2023-06-04T01:54:12;13.00;99.90
19138;DHT22;68178;52.188;5.598;2023-06-04T01:56:37;13.00;99.90
19138;DHT22;68178;52.188;5.598;2023-06-04T01:59:03;13.00;99.90
19138;DHT22;68178;52.188;5.598;2023-06-04T02:01:29;12.90;99.90
19138;DHT22;68178;52.188;5.598;2023-06-04T02:03:55;12.90;99.90
19138;DHT22;68178;52.188;5.598;2023-06-04T02:06:20;12.80;99.90
19138;DHT22;68178;52.188;5.598;2023-06-04T02:08:46;12.80;99.90
19138;DHT22;68178;52.188;5.598;2023-06-04T02:11:11;12.80;99.90
19138;DHT22;68178;52.188;5.598;2023-06-04T02:13:37;12.80;99.90
19138;DHT22;68178;52.188;5.598;2023-06-04T02:16:03;12.80;99.90
19138;DHT22;68178;52.188;5.598;2023-06-04T02:18:28;12.80;99.90
19138;DHT22;68178;52.188;5.598;2023-06-04T02:20:56;12.80;99.90
19138;DHT22;68178;52.188;5.598;2023-06-04T02:23:22;12.80;99.90
19138;DHT22;68178;52.188;5.598;2023-06-04T02:25:48;12.80;99.90
19138;DHT22;68178;52.188;5.598;2023-06-04T02:28:15;12.70;99.90
19138;DHT22;68178;52.188;5.598;2023-06-04T02:30:41;12.70;99.90
19138;DHT22;68178;52.188;5.598;2023-06-04T02:33:07;12.60;99.90
19138;DHT22;68178;52.188;5.598;2023-06-04T02:35:35;12.60;99.90
19138;DHT22;68178;52.188;5.598;2023-06-04T02:38:01;12.60;99.90
19138;DHT22;68178;52.188;5.598;2023-06-04T02:40:27;12.50;99.90
19138;DHT22;68178;52.188;5.598;2023-06-04T02:42:54;12.50;99.90
19138;DHT22;68178;52.188;5.598;2023-06-04T02:45:20;12.50;99.90
19138;DHT22;68178;52.188;5.598;2023-06-04T02:47:45;12.50;99.90
19138;DHT22;68178;52.188;5.598;2023-06-04T02:50:12;12.50;99.90
19138;DHT22;68178;52.188;5.598;2023-06-04T02:52:38;12.40;99.90
19138;DHT22;68178;52.188;5.598;2023-06-04T02:55:06;12.40;99.90
19138;DHT22;68178;52.188;5.598;2023-06-04T02:57:32;12.40;99.90
19138;DHT22;68178;52.188;5.598;2023-06-04T02:59:58;12.40;99.90
19138;DHT22;68178;52.188;5.598;2023-06-04T03:02:24;12.40;99.90
19138;DHT22;68178;52.188;5.598;2023-06-04T03:04:50;12.30;99.90
19138;DHT22;68178;52.188;5.598;2023-06-04T03:07:17;12.20;99.90
19138;DHT22;68178;52.188;5.598;2023-06-04T03:09:46;12.20;99.90
19138;DHT22;68178;52.188;5.598;2023-06-04T03:12:11;12.10;99.90
19138;DHT22;68178;52.188;5.598;2023-06-04T03:14:38;12.10;99.90
19138;DHT22;68178;52.188;5.598;2023-06-04T03:17:04;12.10;99.90
19138;DHT22;68178;52.188;5.598;2023-06-04T03:19:40;12.10;99.90
19138;DHT22;68178;52.188;5.598;2023-06-04T03:22:06;12.00;99.90
19138;DHT22;68178;52.188;5.598;2023-06-04T03:24:37;12.10;99.90
19138;DHT22;68178;52.188;5.598;2023-06-04T03:27:03;12.10;99.90
19138;DHT22;68178;52.188;5.598;2023-06-04T03:29:29;12.00;99.90
19138;DHT22;68178;52.188;5.598;2023-06-04T03:31:56;11.90;99.90
19138;DHT22;68178;52.188;5.598;2023-06-04T03:34:21;12.00;99.90
19138;DHT22;68178;52.188;5.598;2023-06-04T03:36:53;11.90;99.90
19138;DHT22;68178;52.188;5.598;2023-06-04T03:39:19;11.90;99.90
19138;DHT22;68178;52.188;5.598;2023-06-04T03:41:45;12.00;99.90
19138;DHT22;68178;52.188;5.598;2023-06-04T03:44:16;12.00;99.90
19138;DHT22;68178;52.188;5.598;2023-06-04T03:46:45;12.00;99.90
19138;DHT22;68178;52.188;5.598;2023-06-04T03:49:11;12.00;99.90
19138;DHT22;68178;52.188;5.598;2023-06-04T03:51:37;12.00;99.90
19138;DHT22;68178;52.188;5.598;2023-06-04T03:54:03;11.90;99.90
19138;DHT22;68178;52.188;5.598;2023-06-04T03:56:29;11.90;99.90
19138;DHT22;68178;52.188;5.598;2023-06-04T03:58:55;11.90;99.90
19138;DHT22;68178;52.188;5.598;2023-06-04T04:01:21;12.00;99.90
19138;DHT22;68178;52.188;5.598;2023-06-04T04:03:48;12.00;99.90
19138;DHT22;68178;52.188;5.598;2023-06-04T04:06:15;12.00;99.90
19138;DHT22;68178;52.188;5.598;2023-06-04T04:08:41;12.00;99.90
19138;DHT22;68178;52.188;5.598;2023-06-04T04:11:12;12.00;99.90
19138;DHT22;68178;52.188;5.598;2023-06-04T04:13:37;12.20;99.90
19138;DHT22;68178;52.188;5.598;2023-06-04T04:16:04;12.20;99.90
19138;DHT22;68178;52.188;5.598;2023-06-04T04:18:33;12.20;99.90
19138;DHT22;68178;52.188;5.598;2023-06-04T04:21:00;12.20;99.90
19138;DHT22;68178;52.188;5.598;2023-06-04T04:23:26;12.40;99.90
19138;DHT22;68178;52.188;5.598;2023-06-04T04:25:52;12.20;99.90
19138;DHT22;68178;52.188;5.598;2023-06-04T04:28:19;12.30;99.90
19138;DHT22;68178;52.188;5.598;2023-06-04T04:30:45;12.30;99.90
19138;DHT22;68178;52.188;5.598;2023-06-04T04:33:12;12.30;99.90
19138;DHT22;68178;52.188;5.598;2023-06-04T04:35:41;12.30;99.90
19138;DHT22;68178;52.188;5.598;2023-06-04T04:38:07;12.40;99.90
19138;DHT22;68178;52.188;5.598;2023-06-04T04:40:33;12.40;99.90
19138;DHT22;68178;52.188;5.598;2023-06-04T04:42:59;12.50;99.90
19138;DHT22;68178;52.188;5.598;2023-06-04T04:45:25;12.50;99.90
19138;DHT22;68178;52.188;5.598;2023-06-04T04:47:50;12.60;99.90
19138;DHT22;68178;52.188;5.598;2023-06-04T04:50:19;12.60;99.90
19138;DHT22;68178;52.188;5.598;2023-06-04T04:52:44;12.60;99.90
19138;DHT22;68178;52.188;5.598;2023-06-04T04:55:10;12.70;99.90
19138;DHT22;68178;52.188;5.598;2023-06-04T04:57:38;12.80;99.90
19138;DHT22;68178;52.188;5.598;2023-06-04T05:00:04;12.80;99.90
19138;DHT22;68178;52.188;5.598;2023-06-04T05:02:32;12.90;99.90
19138;DHT22;68178;52.188;5.598;2023-06-04T05:04:57;12.90;99.90
19138;DHT22;68178;52.188;5.598;2023-06-04T05:07:23;13.10;99.90
19138;DHT22;68178;52.188;5.598;2023-06-04T05:09:50;13.10;99.90
19138;DHT22;68178;52.188;5.598;2023-06-04T05:12:15;13.20;99.90
19138;DHT22;68178;52.188;5.598;2023-06-04T05:14:41;13.20;99.90
19138;DHT22;68178;52.188;5.598;2023-06-04T05:17:07;13.30;99.90
19138;DHT22;68178;52.188;5.598;2023-06-04T05:19:35;13.40;99.90
19138;DHT22;68178;52.188;5.598;2023-06-04T05:22:02;13.40;99.90
19138;DHT22;68178;52.188;5.598;2023-06-04T05:24:28;13.60;99.90
19138;DHT22;68178;52.188;5.598;2023-06-04T05:26:54;13.60;99.90
19138;DHT22;68178;52.188;5.598;2023-06-04T05:29:22;13.70;99.90
19138;DHT22;68178;52.188;5.598;2023-06-04T05:31:47;13.80;99.90
19138;DHT22;68178;52.188;5.598;2023-06-04T05:34:13;13.80;99.90
19138;DHT22;68178;52.188;5.598;2023-06-04T05:36:42;13.90;99.90
19138;DHT22;68178;52.188;5.598;2023-06-04T05:39:08;13.90;99.90
19138;DHT22;68178;52.188;5.598;2023-06-04T05:41:35;14.00;99.90
19138;DHT22;68178;52.188;5.598;2023-06-04T05:44:01;14.10;99.90
19138;DHT22;68178;52.188;5.598;2023-06-04T05:46:27;14.20;99.90
19138;DHT22;68178;52.188;5.598;2023-06-04T05:48:52;14.30;99.90
19138;DHT22;68178;52.188;5.598;2023-06-04T05:51:19;14.40;99.90
19138;DHT22;68178;52.188;5.598;2023-06-04T05:53:45;14.40;99.90
19138;DHT22;68178;52.188;5.598;2023-06-04T05:56:11;14.50;99.90
19138;DHT22;68178;52.188;5.598;2023-06-04T05:58:37;14.50;99.90
19138;DHT22;68178;52.188;5.598;2023-06-04T06:01:03;14.70;99.90
19138;DHT22;68178;52.188;5.598;2023-06-04T06:03:29;14.80;99.90
19138;DHT22;68178;52.188;5.598;2023-06-04T06:05:55;14.80;99.90
19138;DHT22;68178;52.188;5.598;2023-06-04T06:08:22;15.00;99.90
19138;DHT22;68178;52.188;5.598;2023-06-04T06:10:47;15.10;99.90
19138;DHT22;68178;52.188;5.598;2023-06-04T06:13:13;15.20;99.90
19138;DHT22;68178;52.188;5.598;2023-06-04T06:15:39;15.30;99.90
19138;DHT22;68178;52.188;5.598;2023-06-04T06:18:05;15.50;99.90
19138;DHT22;68178;52.188;5.598;2023-06-04T06:20:30;15.60;99.90
19138;DHT22;68178;52.188;5.598;2023-06-04T06:22:57;15.60;99.90
19138;DHT22;68178;52.188;5.598;2023-06-04T06:25:23;15.70;99.90
19138;DHT22;68178;52.188;5.598;2023-06-04T06:27:50;15.80;99.90
19138;DHT22;68178;52.188;5.598;2023-06-04T06:30:16;16.00;99.90
19138;DHT22;68178;52.188;5.598;2023-06-04T06:32:42;16.30;99.90
19138;DHT22;68178;52.188;5.598;2023-06-04T06:35:08;16.30;99.90
19138;DHT22;68178;52.188;5.598;2023-06-04T06:37:33;16.20;99.90
19138;DHT22;68178;52.188;5.598;2023-06-04T06:39:59;16.40;99.90
19138;DHT22;68178;52.188;5.598;2023-06-04T06:42:25;16.40;99.90
19138;DHT22;68178;52.188;5.598;2023-06-04T06:44:50;16.50;99.90
19138;DHT22;68178;52.188;5.598;2023-06-04T06:47:16;16.60;99.90
19138;DHT22;68178;52.188;5.598;2023-06-04T06:49:42;16.80;99.90
19138;DHT22;68178;52.188;5.598;2023-06-04T06:52:08;17.00;99.90
19138;DHT22;68178;52.188;5.598;2023-06-04T06:54:33;17.00;99.90
19138;DHT22;68178;52.188;5.598;2023-06-04T06:56:59;17.20;99.90
19138;DHT22;68178;52.188;5.598;2023-06-04T06:59:24;17.50;99.90
19138;DHT22;68178;52.188;5.598;2023-06-04T07:01:50;17.90;99.90
19138;DHT22;68178;52.188;5.598;2023-06-04T07:04:16;18.00;99.90
19138;DHT22;68178;52.188;5.598;2023-06-04T07:06:42;18.20;99.90
19138;DHT22;68178;52.188;5.598;2023-06-04T07:09:08;18.30;99.90
19138;DHT22;68178;52.188;5.598;2023-06-04T07:11:34;18.30;99.90
19138;DHT22;68178;52.188;5.598;2023-06-04T07:14:00;18.30;99.90
19138;DHT22;68178;52.188;5.598;2023-06-04T07:16:28;18.50;99.90
19138;DHT22;68178;52.188;5.598;2023-06-04T07:18:53;18.40;99.90
19138;DHT22;68178;52.188;5.598;2023-06-04T07:21:19;18.80;99.90
19138;DHT22;68178;52.188;5.598;2023-06-04T07:23:45;18.90;99.90
19138;DHT22;68178;52.188;5.598;2023-06-04T07:26:15;19.20;99.90
19138;DHT22;68178;52.188;5.598;2023-06-04T07:28:40;19.20;99.90
19138;DHT22;68178;52.188;5.598;2023-06-04T07:31:06;19.10;99.90
19138;DHT22;68178;52.188;5.598;2023-06-04T07:33:31;19.00;99.90
19138;DHT22;68178;52.188;5.598;2023-06-04T07:35:57;19.00;99.90
19138;DHT22;68178;52.188;5.598;2023-06-04T07:38:23;19.20;99.90
19138;DHT22;68178;52.188;5.598;2023-06-04T07:40:48;19.30;99.90
19138;DHT22;68178;52.188;5.598;2023-06-04T07:43:14;19.30;99.90
19138;DHT22;68178;52.188;5.598;2023-06-04T07:45:39;19.20;99.90
19138;DHT22;68178;52.188;5.598;2023-06-04T07:48:05;19.30;99.90
19138;DHT22;68178;52.188;5.598;2023-06-04T07:50:30;19.50;99.90
19138;DHT22;68178;52.188;5.598;2023-06-04T07:52:56;19.80;99.90
19138;DHT22;68178;52.188;5.598;2023-06-04T07:55:22;19.90;99.90
19138;DHT22;68178;52.188;5.598;2023-06-04T07:57:47;19.90;99.90
19138;DHT22;68178;52.188;5.598;2023-06-04T08:00:13;20.10;99.90
19138;DHT22;68178;52.188;5.598;2023-06-04T08:02:40;20.10;99.90
19138;DHT22;68178;52.188;5.598;2023-06-04T08:05:05;20.20;99.90
19138;DHT22;68178;52.188;5.598;2023-06-04T08:07:31;20.20;99.90
19138;DHT22;68178;52.188;5.598;2023-06-04T08:09:56;20.30;99.90
19138;DHT22;68178;52.188;5.598;2023-06-04T08:12:22;20.30;99.90
19138;DHT22;68178;52.188;5.598;2023-06-04T08:14:48;20.30;99.90
19138;DHT22;68178;52.188;5.598;2023-06-04T08:17:15;20.50;99.90
19138;DHT22;68178;52.188;5.598;2023-06-04T08:19:41;20.80;99.90
19138;DHT22;68178;52.188;5.598;2023-06-04T08:22:06;20.80;99.90
19138;DHT22;68178;52.188;5.598;2023-06-04T08:24:32;20.80;99.90
19138;DHT22;68178;52.188;5.598;2023-06-04T08:26:58;21.00;99.90
19138;DHT22;68178;52.188;5.598;2023-06-04T08:29:23;21.10;99.90
19138;DHT22;68178;52.188;5.598;2023-06-04T08:31:49;21.20;99.90
19138;DHT22;68178;52.188;5.598;2023-06-04T08:34:14;21.50;99.90
19138;DHT22;68178;52.188;5.598;2023-06-04T08:36:40;21.70;99.90
19138;DHT22;68178;52.188;5.598;2023-06-04T08:39:06;21.90;99.90
19138;DHT22;68178;52.188;5.598;2023-06-04T08:41:38;21.90;99.10
19138;DHT22;68178;52.188;5.598;2023-06-04T08:44:05;22.00;98.40
19138;DHT22;68178;52.188;5.598;2023-06-04T08:46:32;22.20;98.00
19138;DHT22;68178;52.188;5.598;2023-06-04T08:49:00;22.20;94.80
19138;DHT22;68178;52.188;5.598;2023-06-04T08:51:33;22.10;94.20
19138;DHT22;68178;52.188;5.598;2023-06-04T08:53:59;22.10;93.80
19138;DHT22;68178;52.188;5.598;2023-06-04T08:56:25;22.10;94.20
19138;DHT22;68178;52.188;5.598;2023-06-04T08:58:56;22.10;94.20
19138;DHT22;68178;52.188;5.598;2023-06-04T09:01:25;22.30;94.80
19138;DHT22;68178;52.188;5.598;2023-06-04T09:03:51;22.40;94.60
19138;DHT22;68178;52.188;5.598;2023-06-04T09:06:16;22.40;93.00
19138;DHT22;68178;52.188;5.598;2023-06-04T09:08:43;22.40;94.20
19138;DHT22;68178;52.188;5.598;2023-06-04T09:11:11;22.60;92.90
19138;DHT22;68178;52.188;5.598;2023-06-04T09:13:40;22.40;93.00
19138;DHT22;68178;52.188;5.598;2023-06-04T09:16:08;22.60;91.50
19138;DHT22;68178;52.188;5.598;2023-06-04T09:18:34;22.90;91.40
19138;DHT22;68178;52.188;5.598;2023-06-04T09:21:03;22.80;90.50
19138;DHT22;68178;52.188;5.598;2023-06-04T09:23:31;22.90;90.80
19138;DHT22;68178;52.188;5.598;2023-06-04T09:26:06;22.90;90.20
19138;DHT22;68178;52.188;5.598;2023-06-04T09:28:32;22.90;89.30
19138;DHT22;68178;52.188;5.598;2023-06-04T09:30:59;23.00;87.70
19138;DHT22;68178;52.188;5.598;2023-06-04T09:33:24;23.10;90.30
19138;DHT22;68178;52.188;5.598;2023-06-04T09:35:58;23.20;89.20
19138;DHT22;68178;52.188;5.598;2023-06-04T09:38:33;23.10;89.00
19138;DHT22;68178;52.188;5.598;2023-06-04T09:40:59;23.20;89.30
19138;DHT22;68178;52.188;5.598;2023-06-04T09:43:26;23.20;88.00
19138;DHT22;68178;52.188;5.598;2023-06-04T09:45:52;23.40;88.50
19138;DHT22;68178;52.188;5.598;2023-06-04T09:48:21;23.50;85.30
19138;DHT22;68178;52.188;5.598;2023-06-04T09:50:48;23.50;81.40
19138;DHT22;68178;52.188;5.598;2023-06-04T09:53:19;23.60;84.50
19138;DHT22;68178;52.188;5.598;2023-06-04T09:56:01;23.70;84.50
19138;DHT22;68178;52.188;5.598;2023-06-04T09:58:29;23.80;81.70
19138;DHT22;68178;52.188;5.598;2023-06-04T10:00:56;23.50;83.40
19138;DHT22;68178;52.188;5.598;2023-06-04T10:03:25;23.60;85.00
19138;DHT22;68178;52.188;5.598;2023-06-04T10:05:56;23.80;83.80
19138;DHT22;68178;52.188;5.598;2023-06-04T10:08:22;24.00;84.20
19138;DHT22;68178;52.188;5.598;2023-06-04T10:10:50;24.10;79.80
19138;DHT22;68178;52.188;5.598;2023-06-04T10:13:19;23.90;80.30
19138;DHT22;68178;52.188;5.598;2023-06-04T10:15:46;23.90;81.40
19138;DHT22;68178;52.188;5.598;2023-06-04T10:18:14;24.10;82.60
19138;DHT22;68178;52.188;5.598;2023-06-04T10:20:41;24.40;78.90
19138;DHT22;68178;52.188;5.598;2023-06-04T10:23:07;24.50;76.50
19138;DHT22;68178;52.188;5.598;2023-06-04T10:25:37;24.40;76.60
19138;DHT22;68178;52.188;5.598;2023-06-04T10:28:03;24.60;79.60
19138;DHT22;68178;52.188;5.598;2023-06-04T10:30:29;24.70;79.80
19138;DHT22;68178;52.188;5.598;2023-06-04T10:32:57;24.90;80.50
19138;DHT22;68178;52.188;5.598;2023-06-04T10:35:32;25.00;78.40
19138;DHT22;68178;52.188;5.598;2023-06-04T10:38:08;25.00;78.50
19138;DHT22;68178;52.188;5.598;2023-06-04T10:40:35;25.10;79.80
19138;DHT22;68178;52.188;5.598;2023-06-04T10:43:07;25.10;76.50
19138;DHT22;68178;52.188;5.598;2023-06-04T10:45:33;25.30;78.10
19138;DHT22;68178;52.188;5.598;2023-06-04T10:48:03;25.30;76.10
19138;DHT22;68178;52.188;5.598;2023-06-04T10:50:28;25.20;73.50
19138;DHT22;68178;52.188;5.598;2023-06-04T10:52:55;25.30;72.20
19138;DHT22;68178;52.188;5.598;2023-06-04T10:55:23;25.60;77.90
19138;DHT22;68178;52.188;5.598;2023-06-04T10:57:56;25.90;75.30
19138;DHT22;68178;52.188;5.598;2023-06-04T11:00:34;26.00;72.30
19138;DHT22;68178;52.188;5.598;2023-06-04T11:02:59;25.90;72.50
19138;DHT22;68178;52.188;5.598;2023-06-04T11:05:43;25.90;73.10
19138;DHT22;68178;52.188;5.598;2023-06-04T11:08:10;25.80;76.40
19138;DHT22;68178;52.188;5.598;2023-06-04T11:10:38;26.00;73.60
19138;DHT22;68178;52.188;5.598;2023-06-04T11:13:04;26.30;74.90
19138;DHT22;68178;52.188;5.598;2023-06-04T11:15:42;26.50;78.40
19138;DHT22;68178;52.188;5.598;2023-06-04T11:18:13;26.40;72.90
19138;DHT22;68178;52.188;5.598;2023-06-04T11:20:38;26.20;75.60
19138;DHT22;68178;52.188;5.598;2023-06-04T11:23:04;26.30;74.20
19138;DHT22;68178;52.188;5.598;2023-06-04T11:25:31;26.50;73.30
19138;DHT22;68178;52.188;5.598;2023-06-04T11:27:58;26.50;73.80
19138;DHT22;68178;52.188;5.598;2023-06-04T11:30:25;26.60;74.50
19138;DHT22;68178;52.188;5.598;2023-06-04T11:33:00;26.50;73.30
19138;DHT22;68178;52.188;5.598;2023-06-04T11:35:25;26.70;76.60
19138;DHT22;68178;52.188;5.598;2023-06-04T11:37:55;26.60;73.90
19138;DHT22;68178;52.188;5.598;2023-06-04T11:40:21;26.80;72.10
19138;DHT22;68178;52.188;5.598;2023-06-04T11:42:48;27.10;73.80
19138;DHT22;68178;52.188;5.598;2023-06-04T11:45:16;27.20;72.70
19138;DHT22;68178;52.188;5.598;2023-06-04T11:47:53;27.30;73.00
19138;DHT22;68178;52.188;5.598;2023-06-04T11:50:19;27.30;74.30
19138;DHT22;68178;52.188;5.598;2023-06-04T11:52:46;27.20;71.90
19138;DHT22;68178;52.188;5.598;2023-06-04T11:55:12;27.00;70.90
19138;DHT22;68178;52.188;5.598;2023-06-04T11:57:39;26.90;70.50
19138;DHT22;68178;52.188;5.598;2023-06-04T12:00:06;26.80;71.60
19138;DHT22;68178;52.188;5.598;2023-06-04T12:02:36;26.90;71.50
19138;DHT22;68178;52.188;5.598;2023-06-04T12:05:15;27.10;72.90
19138;DHT22;68178;52.188;5.598;2023-06-04T12:07:41;27.40;71.90
19138;DHT22;68178;52.188;5.598;2023-06-04T12:10:09;27.40;71.70
19138;DHT22;68178;52.188;5.598;2023-06-04T12:12:35;27.40;71.70
19138;DHT22;68178;52.188;5.598;2023-06-04T12:15:01;27.40;71.60
19138;DHT22;68178;52.188;5.598;2023-06-04T12:17:26;27.50;72.60
19138;DHT22;68178;52.188;5.598;2023-06-04T12:19:52;27.50;70.10
19138;DHT22;68178;52.188;5.598;2023-06-04T12:22:18;27.40;70.90
19138;DHT22;68178;52.188;5.598;2023-06-04T12:24:49;27.90;68.90
19138;DHT22;68178;52.188;5.598;2023-06-04T12:27:18;28.00;74.30
19138;DHT22;68178;52.188;5.598;2023-06-04T12:30:04;28.10;73.70
19138;DHT22;68178;52.188;5.598;2023-06-04T12:32:30;27.70;71.40
19138;DHT22;68178;52.188;5.598;2023-06-04T12:34:59;27.80;69.60
19138;DHT22;68178;52.188;5.598;2023-06-04T12:37:25;27.70;67.70
19138;DHT22;68178;52.188;5.598;2023-06-04T12:39:51;27.40;67.90
19138;DHT22;68178;52.188;5.598;2023-06-04T12:42:17;27.60;72.00
19138;DHT22;68178;52.188;5.598;2023-06-04T12:44:44;27.80;70.00
19138;DHT22;68178;52.188;5.598;2023-06-04T12:47:10;27.70;69.90
19138;DHT22;68178;52.188;5.598;2023-06-04T12:49:36;27.70;71.70
19138;DHT22;68178;52.188;5.598;2023-06-04T12:52:02;27.80;71.60
19138;DHT22;68178;52.188;5.598;2023-06-04T12:54:27;27.90;72.00
19138;DHT22;68178;52.188;5.598;2023-06-04T12:56:54;28.10;70.60
19138;DHT22;68178;52.188;5.598;2023-06-04T12:59:22;28.20;72.30
19138;DHT22;68178;52.188;5.598;2023-06-04T13:01:47;28.10;71.30
19138;DHT22;68178;52.188;5.598;2023-06-04T13:04:13;28.40;70.80
19138;DHT22;68178;52.188;5.598;2023-06-04T13:06:39;28.10;72.30
19138;DHT22;68178;52.188;5.598;2023-06-04T13:09:06;27.80;73.50
19138;DHT22;68178;52.188;5.598;2023-06-04T13:11:38;28.20;72.70
19138;DHT22;68178;52.188;5.598;2023-06-04T13:14:05;28.40;73.00
19138;DHT22;68178;52.188;5.598;2023-06-04T13:16:31;28.30;73.90
19138;DHT22;68178;52.188;5.598;2023-06-04T13:18:56;28.60;68.20
19138;DHT22;68178;52.188;5.598;2023-06-04T13:21:25;28.50;69.50
19138;DHT22;68178;52.188;5.598;2023-06-04T13:23:50;28.50;70.70
19138;DHT22;68178;52.188;5.598;2023-06-04T13:26:17;28.10;71.40
19138;DHT22;68178;52.188;5.598;2023-06-04T13:28:42;28.30;72.10
19138;DHT22;68178;52.188;5.598;2023-06-04T13:31:08;28.30;75.50
19138;DHT22;68178;52.188;5.598;2023-06-04T13:33:34;28.30;75.90
19138;DHT22;68178;52.188;5.598;2023-06-04T13:36:00;28.60;74.30
19138;DHT22;68178;52.188;5.598;2023-06-04T13:38:27;28.20;74.00
19138;DHT22;68178;52.188;5.598;2023-06-04T13:40:53;28.10;78.40
19138;DHT22;68178;52.188;5.598;2023-06-04T13:43:18;28.20;76.70
19138;DHT22;68178;52.188;5.598;2023-06-04T13:45:44;28.30;80.60
19138;DHT22;68178;52.188;5.598;2023-06-04T13:48:11;28.20;78.20
19138;DHT22;68178;52.188;5.598;2023-06-04T13:50:37;27.70;74.20
19138;DHT22;68178;52.188;5.598;2023-06-04T13:53:02;27.70;75.00
19138;DHT22;68178;52.188;5.598;2023-06-04T13:55:29;27.60;77.90
19138;DHT22;68178;52.188;5.598;2023-06-04T13:57:55;27.40;76.30
19138;DHT22;68178;52.188;5.598;2023-06-04T14:00:21;26.80;77.20
19138;DHT22;68178;52.188;5.598;2023-06-04T14:02:47;26.80;77.00
19138;DHT22;68178;52.188;5.598;2023-06-04T14:05:13;26.70;76.70
19138;DHT22;68178;52.188;5.598;2023-06-04T14:07:40;27.00;76.10
19138;DHT22;68178;52.188;5.598;2023-06-04T14:10:06;27.40;78.20
19138;DHT22;68178;52.188;5.598;2023-06-04T14:12:32;27.70;79.40
19138;DHT22;68178;52.188;5.598;2023-06-04T14:14:57;27.50;76.10
19138;DHT22;68178;52.188;5.598;2023-06-04T14:17:23;27.70;78.30
19138;DHT22;68178;52.188;5.598;2023-06-04T14:19:48;27.60;80.50
19138;DHT22;68178;52.188;5.598;2023-06-04T14:22:14;27.50;79.40
19138;DHT22;68178;52.188;5.598;2023-06-04T14:24:40;27.20;77.10
19138;DHT22;68178;52.188;5.598;2023-06-04T14:27:06;27.40;79.70
19138;DHT22;68178;52.188;5.598;2023-06-04T14:29:32;27.30;76.50
19138;DHT22;68178;52.188;5.598;2023-06-04T14:31:58;27.10;77.70
19138;DHT22;68178;52.188;5.598;2023-06-04T14:34:24;26.90;77.70
19138;DHT22;68178;52.188;5.598;2023-06-04T14:36:49;26.80;79.30
19138;DHT22;68178;52.188;5.598;2023-06-04T14:39:15;26.90;79.60
19138;DHT22;68178;52.188;5.598;2023-06-04T14:41:40;26.90;82.10
19138;DHT22;68178;52.188;5.598;2023-06-04T14:44:06;26.80;82.40
19138;DHT22;68178;52.188;5.598;2023-06-04T14:46:31;26.70;84.70
19138;DHT22;68178;52.188;5.598;2023-06-04T14:48:57;26.60;80.50
19138;DHT22;68178;52.188;5.598;2023-06-04T14:51:23;26.50;80.70
19138;DHT22;68178;52.188;5.598;2023-06-04T14:53:48;26.30;85.20
19138;DHT22;68178;52.188;5.598;2023-06-04T14:56:16;26.10;88.20
19138;DHT22;68178;52.188;5.598;2023-06-04T14:58:42;26.00;87.70
19138;DHT22;68178;52.188;5.598;2023-06-04T15:01:07;25.90;83.50
19138;DHT22;68178;52.188;5.598;2023-06-04T15:03:37;25.90;82.20
19138;DHT22;68178;52.188;5.598;2023-06-04T15:06:03;25.80;81.90
19138;DHT22;68178;52.188;5.598;2023-06-04T15:08:28;25.80;82.50
19138;DHT22;68178;52.188;5.598;2023-06-04T15:10:54;25.80;86.80
19138;DHT22;68178;52.188;5.598;2023-06-04T15:13:19;25.70;86.80
19138;DHT22;68178;52.188;5.598;2023-06-04T15:15:45;25.70;87.10
19138;DHT22;68178;52.188;5.598;2023-06-04T15:18:10;25.70;89.50
19138;DHT22;68178;52.188;5.598;2023-06-04T15:20:36;25.60;85.80
19138;DHT22;68178;52.188;5.598;2023-06-04T15:23:02;25.40;86.40
19138;DHT22;68178;52.188;5.598;2023-06-04T15:25:27;25.30;84.40
19138;DHT22;68178;52.188;5.598;2023-06-04T15:27:53;25.30;82.60
19138;DHT22;68178;52.188;5.598;2023-06-04T15:30:18;25.00;83.80
19138;DHT22;68178;52.188;5.598;2023-06-04T15:32:46;25.00;85.60